createdAt,value
2018-08-04T00:01:09.188Z,22.10
2018-08-04T00:03:37.224Z,22.10
2018-08-04T00:06:05.456Z,22.00
2018-08-04T00:11:01.332Z,21.90
2018-08-04T00:13:29.339Z,21.80
2018-08-04T00:15:57.375Z,21.80
2018-08-04T00:18:25.398Z,21.80
2018-08-04T00:20:53.512Z,21.80
2018-08-04T00:23:21.549Z,21.70
2018-08-04T00:28:17.417Z,21.70
2018-08-04T00:30:45.455Z,21.70
2018-08-04T00:35:41.300Z,21.70
2018-08-04T00:38:09.341Z,21.60
2018-08-04T00:40:37.372Z,21.50
2018-08-04T00:43:05.421Z,21.50
2018-08-04T00:45:33.452Z,21.50
2018-08-04T00:48:01.486Z,21.50
2018-08-04T00:50:29.482Z,21.50
2018-08-04T00:52:57.499Z,21.40
2018-08-04T00:55:25.536Z,21.50
2018-08-04T01:00:21.391Z,21.50
2018-08-04T01:02:49.445Z,21.50
2018-08-04T01:07:45.296Z,21.50
2018-08-04T01:10:13.331Z,21.50
2018-08-04T01:12:41.355Z,21.50
2018-08-04T01:15:09.368Z,21.50
2018-08-04T01:17:37.375Z,21.40
2018-08-04T01:20:06.208Z,21.30
2018-08-04T01:22:35.822Z,21.20
2018-08-04T01:25:05.057Z,21.20
2018-08-04T01:27:33.064Z,21.30
2018-08-04T01:30:01.363Z,21.20
2018-08-04T01:32:29.391Z,21.30
2018-08-04T01:34:57.552Z,21.20
2018-08-04T01:39:53.414Z,21.30
2018-08-04T01:42:21.461Z,21.40
2018-08-04T01:44:49.472Z,21.30
2018-08-04T01:47:17.748Z,21.30
2018-08-04T01:49:45.780Z,21.30
2018-08-04T01:52:13.900Z,21.20
2018-08-04T01:54:41.956Z,21.20
2018-08-04T01:57:09.998Z,21.20
2018-08-04T01:59:38.089Z,21.10
2018-08-04T02:02:06.160Z,21.00
2018-08-04T02:04:34.168Z,21.00
2018-08-04T02:07:02.191Z,21.10
2018-08-04T02:09:30.204Z,21.10
2018-08-04T02:11:58.231Z,21.10
2018-08-04T02:14:26.267Z,21.00
2018-08-04T02:16:54.296Z,21.00
2018-08-04T02:19:22.347Z,21.00
2018-08-04T02:21:50.388Z,20.90
2018-08-04T02:24:18.399Z,21.00
2018-08-04T02:26:46.416Z,21.10
2018-08-04T02:31:42.251Z,21.20
2018-08-04T02:36:38.088Z,21.20
2018-08-04T02:41:34.748Z,21.30
2018-08-04T02:46:30.592Z,21.30
2018-08-04T02:48:58.620Z,21.20
2018-08-04T02:51:26.640Z,21.10
2018-08-04T02:53:54.651Z,21.10
2018-08-04T02:56:22.664Z,21.10
2018-08-04T02:58:50.812Z,21.20
2018-08-04T03:01:18.825Z,21.20
2018-08-04T03:03:46.908Z,21.10
2018-08-04T03:06:14.924Z,21.00
2018-08-04T03:08:42.981Z,21.00
2018-08-04T03:11:11.033Z,20.90
2018-08-04T03:13:39.059Z,20.90
2018-08-04T03:16:07.105Z,20.90
2018-08-04T03:18:35.121Z,20.90
2018-08-04T03:21:03.148Z,20.90
2018-08-04T03:23:31.185Z,21.00
2018-08-04T03:25:59.216Z,21.00
2018-08-04T03:28:27.240Z,21.00
2018-08-04T03:30:55.256Z,20.90
2018-08-04T03:33:23.270Z,20.90
2018-08-04T03:35:51.303Z,20.90
2018-08-04T03:38:19.315Z,20.80
2018-08-04T03:40:47.320Z,20.80
2018-08-04T03:43:15.335Z,20.70
2018-08-04T03:45:43.335Z,20.70
2018-08-04T03:48:11.335Z,20.70
2018-08-04T03:50:39.340Z,20.60
2018-08-04T03:53:07.410Z,20.60
2018-08-04T03:55:35.430Z,20.70
2018-08-04T04:00:31.269Z,20.80
2018-08-04T04:02:59.280Z,20.80
2018-08-04T04:05:27.308Z,20.80
2018-08-04T04:07:55.327Z,20.90
2018-08-04T04:10:23.358Z,20.90
2018-08-04T04:12:51.404Z,21.00
2018-08-04T04:15:19.433Z,21.00
2018-08-04T04:17:48.239Z,21.10
2018-08-04T04:20:18.033Z,21.10
2018-08-04T04:22:46.121Z,21.00
2018-08-04T04:25:14.160Z,20.90
2018-08-04T04:27:42.656Z,20.90
2018-08-04T04:30:10.726Z,21.00
2018-08-04T04:32:38.739Z,21.10
2018-08-04T04:35:06.772Z,21.10
2018-08-04T04:37:34.803Z,21.10
2018-08-04T04:40:02.919Z,21.20
2018-08-04T04:42:31.052Z,21.30
2018-08-04T04:44:59.092Z,21.30
2018-08-04T04:47:27.124Z,21.30
2018-08-04T04:49:55.123Z,21.30
2018-08-04T04:52:23.151Z,21.40
2018-08-04T04:54:51.164Z,21.40
2018-08-04T04:59:47.027Z,21.30
2018-08-04T05:02:15.028Z,21.40
2018-08-04T05:04:43.039Z,21.50
2018-08-04T05:07:11.068Z,21.50
2018-08-04T05:09:39.078Z,21.60
2018-08-04T05:14:34.950Z,21.80
2018-08-04T05:17:02.956Z,21.80
2018-08-04T05:19:30.970Z,21.80
2018-08-04T05:21:59.001Z,21.90
2018-08-04T05:24:27.033Z,21.80
2018-08-04T05:26:55.061Z,21.80
2018-08-04T05:29:23.077Z,21.80
2018-08-04T05:31:51.092Z,21.80
2018-08-04T05:34:19.092Z,21.90
2018-08-04T05:36:47.110Z,22.00
2018-08-04T05:39:15.140Z,22.10
2018-08-04T05:41:44.028Z,22.20
2018-08-04T05:44:12.051Z,22.30
2018-08-04T05:46:40.061Z,22.30
2018-08-04T05:49:08.080Z,22.50
2018-08-04T05:51:36.113Z,22.40
2018-08-04T05:54:04.140Z,22.50
2018-08-04T05:56:32.152Z,22.70
2018-08-04T05:59:00.176Z,22.80
2018-08-04T06:01:28.196Z,22.90
2018-08-04T06:03:56.224Z,22.80
2018-08-04T06:06:24.227Z,22.60
2018-08-04T06:08:52.259Z,22.40
2018-08-04T06:11:20.931Z,22.40
2018-08-04T06:13:48.956Z,22.50
2018-08-04T06:16:17.037Z,22.50
2018-08-04T06:18:45.068Z,22.50
2018-08-04T06:23:40.901Z,22.80
2018-08-04T06:26:08.943Z,23.00
2018-08-04T06:28:36.976Z,23.10
2018-08-04T06:31:05.020Z,23.00
2018-08-04T06:33:33.060Z,22.80
2018-08-04T06:36:01.089Z,22.40
2018-08-04T06:38:29.117Z,22.20
2018-08-04T06:40:57.136Z,22.20
2018-08-04T06:43:25.160Z,22.10
2018-08-04T06:48:20.996Z,22.10
2018-08-04T06:53:16.860Z,22.00
2018-08-04T06:55:44.891Z,22.00
2018-08-04T06:58:12.948Z,22.10
2018-08-04T07:00:40.944Z,22.10
2018-08-04T07:03:08.957Z,22.00
2018-08-04T07:05:36.972Z,21.90
2018-08-04T07:10:33.113Z,22.10
2018-08-04T07:13:01.127Z,22.00
2018-08-04T07:15:29.164Z,22.00
2018-08-04T07:17:57.180Z,22.10
2018-08-04T07:20:25.229Z,22.20
2018-08-04T07:22:53.307Z,22.30
2018-08-04T07:25:21.307Z,22.30
2018-08-04T07:27:49.343Z,22.20
2018-08-04T07:30:17.383Z,22.40
2018-08-04T07:32:45.815Z,22.50
2018-08-04T07:35:13.873Z,22.50
2018-08-04T07:37:42.984Z,22.70
2018-08-04T07:40:11.008Z,22.80
2018-08-04T07:42:39.548Z,22.90
2018-08-04T07:45:07.712Z,23.00
2018-08-04T07:47:35.938Z,23.10
2018-08-04T07:50:03.934Z,23.30
2018-08-04T07:52:32.352Z,23.30
2018-08-04T07:55:00.378Z,23.10
2018-08-04T07:57:28.410Z,23.10
2018-08-04T07:59:56.452Z,23.30
2018-08-04T08:02:24.485Z,23.40
2018-08-04T08:04:52.522Z,23.50
2018-08-04T08:07:22.360Z,23.70
2018-08-04T08:09:50.575Z,23.80
2018-08-04T08:12:18.605Z,23.70
2018-08-04T08:14:46.632Z,23.90
2018-08-04T08:17:14.664Z,23.90
2018-08-04T08:19:43.053Z,23.90
2018-08-04T08:22:11.104Z,23.90
2018-08-04T08:24:39.132Z,24.10
2018-08-04T08:27:07.276Z,24.20
2018-08-04T08:29:35.323Z,24.40
2018-08-04T08:32:03.468Z,24.20
2018-08-04T08:34:31.505Z,24.10
2018-08-04T08:36:59.547Z,24.10
2018-08-04T08:39:27.583Z,24.10
2018-08-04T08:41:55.608Z,24.10
2018-08-04T08:44:23.656Z,24.10
2018-08-04T08:46:51.671Z,24.20
2018-08-04T08:49:19.691Z,24.50
2018-08-04T08:51:47.884Z,24.60
2018-08-04T08:54:15.895Z,24.70
2018-08-04T08:59:11.752Z,24.90
2018-08-04T09:01:39.831Z,25.00
2018-08-04T09:04:08.225Z,25.10
2018-08-04T09:06:36.245Z,25.20
2018-08-04T09:11:33.940Z,25.40
2018-08-04T09:14:01.987Z,25.30
2018-08-04T09:18:57.848Z,25.40
2018-08-04T09:21:25.880Z,25.70
2018-08-04T09:23:53.914Z,25.90
2018-08-04T09:26:21.944Z,26.00
2018-08-04T09:28:49.968Z,26.10
2018-08-04T09:31:17.993Z,26.00
2018-08-04T09:33:46.037Z,25.80
2018-08-04T09:36:14.089Z,25.80
2018-08-04T09:38:42.120Z,25.70
2018-08-04T09:41:10.228Z,25.80
2018-08-04T09:43:38.248Z,25.70
2018-08-04T09:46:06.420Z,25.80
2018-08-04T09:48:34.429Z,26.00
2018-08-04T09:51:02.447Z,26.20
2018-08-04T09:53:30.452Z,26.10
2018-08-04T09:55:58.484Z,26.10
2018-08-04T09:58:26.495Z,26.10
2018-08-04T10:01:00.133Z,26.30
2018-08-04T10:03:28.140Z,26.30
2018-08-04T10:05:56.152Z,26.30
2018-08-04T10:08:24.177Z,26.40
2018-08-04T10:10:52.196Z,26.40
2018-08-04T10:13:20.243Z,26.50
2018-08-04T10:15:48.284Z,26.50
2018-08-04T10:18:16.324Z,26.60
2018-08-04T10:20:44.352Z,26.70
2018-08-04T10:23:12.372Z,26.70
2018-08-04T10:28:08.223Z,26.70
2018-08-04T10:30:36.254Z,26.80
2018-08-04T10:33:04.287Z,27.00
2018-08-04T10:35:32.324Z,26.90
2018-08-04T10:40:28.189Z,26.90
2018-08-04T10:42:56.211Z,27.00
2018-08-04T10:47:52.064Z,27.30
2018-08-04T10:50:20.068Z,27.40
2018-08-04T10:52:48.187Z,27.40
2018-08-04T10:55:16.217Z,27.30
2018-08-04T10:57:44.236Z,27.20
2018-08-04T11:00:12.252Z,27.10
2018-08-04T11:02:40.317Z,27.10
2018-08-04T11:05:08.612Z,27.30
2018-08-04T11:07:36.671Z,27.30
2018-08-04T11:10:05.028Z,27.40
2018-08-04T11:12:33.085Z,27.40
2018-08-04T11:15:01.107Z,27.40
2018-08-04T11:17:29.152Z,27.40
2018-08-04T11:19:57.239Z,27.50
2018-08-04T11:22:25.281Z,27.40
2018-08-04T11:24:53.329Z,27.40
2018-08-04T11:29:49.202Z,27.40
2018-08-04T11:32:17.272Z,27.50
2018-08-04T11:34:45.280Z,27.80
2018-08-04T11:37:13.311Z,28.00
2018-08-04T11:39:41.324Z,27.90
2018-08-04T11:42:09.391Z,27.80
2018-08-04T11:44:37.420Z,27.70
2018-08-04T11:47:05.647Z,27.80
2018-08-04T11:52:01.485Z,28.00
2018-08-04T11:56:57.368Z,27.90
2018-08-04T11:59:25.397Z,27.90
2018-08-04T12:01:53.471Z,27.80
2018-08-04T12:04:21.468Z,27.70
2018-08-04T12:06:49.483Z,27.60
2018-08-04T12:09:17.511Z,27.70
2018-08-04T12:11:45.560Z,27.70
2018-08-04T12:14:13.587Z,27.70
2018-08-04T12:16:41.617Z,27.90
2018-08-04T12:19:09.794Z,27.80
2018-08-04T12:21:37.800Z,27.80
2018-08-04T12:24:05.936Z,27.80
2018-08-04T12:26:33.960Z,27.70
2018-08-04T12:29:01.993Z,27.70
2018-08-04T12:31:30.081Z,28.00
2018-08-04T12:33:58.042Z,28.30
2018-08-04T12:36:26.069Z,28.20
2018-08-04T12:38:54.120Z,28.00
2018-08-04T12:43:50.095Z,28.00
2018-08-04T12:46:18.107Z,28.10
2018-08-04T12:48:46.234Z,28.30
2018-08-04T12:51:14.250Z,28.30
2018-08-04T12:53:42.288Z,28.40
2018-08-04T12:56:10.400Z,28.60
2018-08-04T12:58:38.401Z,28.70
2018-08-04T13:01:06.428Z,28.70
2018-08-04T13:03:34.464Z,28.50
2018-08-04T13:06:02.503Z,28.50
2018-08-04T13:08:30.551Z,28.50
2018-08-04T13:10:58.564Z,28.50
2018-08-04T13:13:26.594Z,28.40
2018-08-04T13:15:54.660Z,28.50
2018-08-04T13:18:22.678Z,28.60
2018-08-04T13:20:50.721Z,28.70
2018-08-04T13:23:18.756Z,28.80
2018-08-04T13:25:46.767Z,28.80
2018-08-04T13:28:14.802Z,29.00
2018-08-04T13:30:42.828Z,28.80
2018-08-04T13:33:10.860Z,28.70
2018-08-04T13:35:38.903Z,28.80
2018-08-04T13:38:06.911Z,28.70
2018-08-04T13:40:34.924Z,28.70
2018-08-04T13:43:02.969Z,28.70
2018-08-04T13:45:30.992Z,28.80
2018-08-04T13:47:59.036Z,28.60
2018-08-04T13:50:27.056Z,28.50
2018-08-04T13:52:55.085Z,28.70
2018-08-04T13:55:23.232Z,28.90
2018-08-04T13:57:51.289Z,28.90
2018-08-04T14:00:19.300Z,28.80
2018-08-04T14:02:47.331Z,28.80
2018-08-04T14:05:15.359Z,28.90
2018-08-04T14:07:43.385Z,28.80
2018-08-04T14:10:11.422Z,28.80
2018-08-04T14:12:39.636Z,29.00
2018-08-04T14:15:07.662Z,29.20
2018-08-04T14:17:35.685Z,29.40
2018-08-04T14:20:03.900Z,29.20
2018-08-04T14:22:31.929Z,29.10
2018-08-04T14:24:59.964Z,29.10
2018-08-04T14:27:27.972Z,29.30
2018-08-04T14:29:56.009Z,29.60
2018-08-04T14:32:24.040Z,29.90
2018-08-04T14:34:52.186Z,29.80
2018-08-04T14:37:20.106Z,29.50
2018-08-04T14:39:48.116Z,29.50
2018-08-04T14:42:16.176Z,29.10
2018-08-04T14:44:44.163Z,29.10
2018-08-04T14:47:12.228Z,29.30
2018-08-04T14:49:40.335Z,29.20
2018-08-04T14:52:08.272Z,29.20
2018-08-04T14:54:36.291Z,29.50
2018-08-04T14:57:04.356Z,29.20
2018-08-04T14:59:32.387Z,29.10
2018-08-04T15:02:00.405Z,29.00
2018-08-04T15:04:28.426Z,29.10
2018-08-04T15:06:56.481Z,29.20
2018-08-04T15:09:24.495Z,29.00
2018-08-04T15:14:20.356Z,28.90
2018-08-04T15:16:48.368Z,28.90
2018-08-04T15:19:16.392Z,29.10
2018-08-04T15:21:44.493Z,29.10
2018-08-04T15:24:12.536Z,28.90
2018-08-04T15:26:40.574Z,28.70
2018-08-04T15:29:08.601Z,28.90
2018-08-04T15:31:36.619Z,28.80
2018-08-04T15:34:04.787Z,29.00
2018-08-04T15:36:32.683Z,29.10
2018-08-04T15:39:00.764Z,29.10
2018-08-04T15:41:28.784Z,29.00
2018-08-04T15:43:56.793Z,28.80
2018-08-04T15:46:24.831Z,28.50
2018-08-04T15:48:52.843Z,28.40
2018-08-04T15:51:20.866Z,28.40
2018-08-04T15:53:48.896Z,28.60
2018-08-04T15:56:16.927Z,28.80
2018-08-04T15:58:44.960Z,29.10
2018-08-04T16:01:12.980Z,29.20
2018-08-04T16:03:40.999Z,29.40
2018-08-04T16:06:09.035Z,29.60
2018-08-04T16:08:37.076Z,29.50
2018-08-04T16:13:32.936Z,28.90
2018-08-04T16:16:01.000Z,28.90
2018-08-04T16:18:29.028Z,29.00
2018-08-04T16:20:57.036Z,28.80
2018-08-04T16:23:25.076Z,28.90
2018-08-04T16:25:53.079Z,28.90
2018-08-04T16:28:21.148Z,29.30
2018-08-04T16:30:49.188Z,29.50
2018-08-04T16:33:17.212Z,29.10
2018-08-04T16:35:45.233Z,29.10
2018-08-04T16:40:41.101Z,28.30
2018-08-04T16:43:09.140Z,28.20
2018-08-04T16:45:37.154Z,28.20
2018-08-04T16:48:05.193Z,28.10
2018-08-04T16:50:33.412Z,27.90
2018-08-04T16:53:01.575Z,28.10
2018-08-04T16:55:29.615Z,28.10
2018-08-04T16:57:57.617Z,27.80
2018-08-04T17:00:25.659Z,27.50
2018-08-04T17:02:53.688Z,27.40
2018-08-04T17:05:21.732Z,27.30
2018-08-04T17:07:49.798Z,27.10
2018-08-04T17:10:17.803Z,27.10
2018-08-04T17:12:45.832Z,27.10
2018-08-04T17:15:13.863Z,27.10
2018-08-04T17:17:41.888Z,26.90
2018-08-04T17:20:09.921Z,26.90
2018-08-04T17:22:37.936Z,26.80
2018-08-04T17:25:05.993Z,26.60
2018-08-04T17:27:34.024Z,26.60
2018-08-04T17:30:02.062Z,26.60
2018-08-04T17:32:30.315Z,26.30
2018-08-04T17:34:58.343Z,26.30
2018-08-04T17:37:26.455Z,26.10
2018-08-04T17:39:54.420Z,26.10
2018-08-04T17:42:22.432Z,26.10
2018-08-04T17:44:50.452Z,26.00
2018-08-04T17:47:18.475Z,26.20
2018-08-04T17:49:46.583Z,26.10
2018-08-04T17:52:14.627Z,25.90
2018-08-04T17:54:42.647Z,25.80
2018-08-04T17:57:10.703Z,25.80
2018-08-04T17:59:38.696Z,25.80
2018-08-04T18:02:06.747Z,25.70
2018-08-04T18:04:34.780Z,25.50
2018-08-04T18:07:02.825Z,25.40
2018-08-04T18:09:30.852Z,25.30
2018-08-04T18:11:58.876Z,25.30
2018-08-04T18:14:26.987Z,25.20
2018-08-04T18:16:54.996Z,25.00
2018-08-04T18:19:23.148Z,25.00
2018-08-04T18:21:51.163Z,24.90
2018-08-04T18:24:19.292Z,24.90
2018-08-04T18:26:47.315Z,24.70
2018-08-04T18:29:15.329Z,24.60
2018-08-04T18:31:43.336Z,24.50
2018-08-04T18:36:39.172Z,24.50
2018-08-04T18:41:35.316Z,24.40
2018-08-04T18:44:03.370Z,24.40
2018-08-04T18:46:31.399Z,24.40
2018-08-04T18:48:59.460Z,24.40
2018-08-04T18:51:27.497Z,24.40
2018-08-04T18:53:55.531Z,24.20
2018-08-04T18:56:23.539Z,24.30
2018-08-04T19:01:19.403Z,24.20
2018-08-04T19:03:47.427Z,24.00
2018-08-04T19:08:43.300Z,23.80
2018-08-04T19:11:11.332Z,23.70
2018-08-04T19:13:39.355Z,23.70
2018-08-04T19:16:07.403Z,23.60
2018-08-04T19:18:35.385Z,23.50
2018-08-04T19:21:03.416Z,23.50
2018-08-04T19:23:31.416Z,23.40
2018-08-04T19:25:59.445Z,23.40
2018-08-04T19:28:27.541Z,23.40
2018-08-04T19:30:55.483Z,23.30
2018-08-04T19:33:23.497Z,23.30
2018-08-04T19:35:51.503Z,23.30
2018-08-04T19:38:19.532Z,23.20
2018-08-04T19:40:47.552Z,23.10
2018-08-04T19:43:15.569Z,23.10
2018-08-04T19:45:43.596Z,23.10
2018-08-04T19:48:11.720Z,23.10
2018-08-04T19:50:39.659Z,23.10
2018-08-04T19:55:35.536Z,22.90
2018-08-04T19:58:03.553Z,22.80
2018-08-04T20:00:31.570Z,22.80
2018-08-04T20:02:59.604Z,22.70
2018-08-04T20:07:55.468Z,22.70
2018-08-04T20:10:23.511Z,22.70
2018-08-04T20:15:19.711Z,22.60
2018-08-04T20:17:47.992Z,22.60
2018-08-04T20:20:16.175Z,22.50
2018-08-04T20:22:44.195Z,22.50
2018-08-04T20:25:12.205Z,22.50
2018-08-04T20:27:40.221Z,22.40
2018-08-04T20:30:08.244Z,22.40
2018-08-04T20:32:36.359Z,22.30
2018-08-04T20:35:04.697Z,22.20
2018-08-04T20:37:32.627Z,22.10
2018-08-04T20:40:00.639Z,22.00
2018-08-04T20:42:28.656Z,22.00
2018-08-04T20:44:56.691Z,22.00
2018-08-04T20:47:24.728Z,22.00
2018-08-04T20:49:52.785Z,21.90
2018-08-04T20:52:20.856Z,21.90
2018-08-04T20:54:48.884Z,21.80
2018-08-04T20:59:44.767Z,21.80
2018-08-04T21:02:12.784Z,21.70
2018-08-04T21:07:08.676Z,21.70
2018-08-04T21:09:36.729Z,21.60
2018-08-04T21:12:04.788Z,21.60
2018-08-04T21:14:32.820Z,21.60
2018-08-04T21:17:00.844Z,21.60
2018-08-04T21:19:28.916Z,21.50
2018-08-04T21:21:56.934Z,21.50
2018-08-04T21:26:54.495Z,21.40
2018-08-04T21:29:23.069Z,21.30
2018-08-04T21:31:51.121Z,21.30
2018-08-04T21:34:19.304Z,21.30
2018-08-04T21:36:47.352Z,21.30
2018-08-04T21:39:16.567Z,21.20
2018-08-04T21:41:45.353Z,21.20
2018-08-04T21:46:43.903Z,21.00
2018-08-04T21:54:09.503Z,21.00
2018-08-04T21:56:37.541Z,20.90
2018-08-04T21:59:05.593Z,20.90
2018-08-04T22:04:01.450Z,20.80
2018-08-04T22:06:45.048Z,20.80
2018-08-04T22:11:48.308Z,20.70
2018-08-04T22:14:16.340Z,20.70
2018-08-04T22:16:44.457Z,20.70
2018-08-04T22:19:12.567Z,20.70
2018-08-04T22:21:40.568Z,20.70
2018-08-04T22:24:08.607Z,20.60
2018-08-04T22:29:04.764Z,20.60
2018-08-04T22:34:00.623Z,20.50
2018-08-04T22:36:28.652Z,20.50
2018-08-04T22:38:56.664Z,20.50
2018-08-04T22:41:24.688Z,20.50
2018-08-04T22:43:52.721Z,20.50
2018-08-04T22:46:20.745Z,20.40
2018-08-04T22:48:50.012Z,20.40
2018-08-04T22:51:20.428Z,20.40
2018-08-04T22:53:48.505Z,20.40
2018-08-04T22:56:16.532Z,20.40
2018-08-04T22:58:44.528Z,20.30
2018-08-04T23:01:12.560Z,20.30
2018-08-04T23:03:40.568Z,20.30
2018-08-04T23:06:08.601Z,20.30
2018-08-04T23:08:36.620Z,20.30
2018-08-04T23:11:04.651Z,20.40
2018-08-04T23:13:32.703Z,20.30
2018-08-04T23:16:00.737Z,20.30
2018-08-04T23:18:28.751Z,20.30
2018-08-04T23:20:56.752Z,20.20
2018-08-04T23:23:24.779Z,20.10
2018-08-04T23:25:52.812Z,20.10
2018-08-04T23:28:20.839Z,20.10
2018-08-04T23:30:48.852Z,20.10
2018-08-04T23:33:16.863Z,20.10
2018-08-04T23:35:44.909Z,20.10
2018-08-04T23:38:12.944Z,20.10
2018-08-04T23:40:41.004Z,20.10
2018-08-04T23:43:09.041Z,20.00
2018-08-04T23:45:37.067Z,20.10
2018-08-04T23:48:05.080Z,20.00
2018-08-04T23:50:33.104Z,20.00
2018-08-04T23:53:01.145Z,20.00
2018-08-04T23:55:29.184Z,20.00
